Aérodrome :
LOGIN :

S'inscrire | Disclaimer

   EN    FR    IT 

 










Légende :    VFR   VFR Marginal   IFR   IFR Intensif   IFR Très Intensif
Visi : 
Plafond : 
>= 8 km
>= 3000ft
5 à 8 km
1000 à 3000 ft
1500m à 5 km
500 à 1000 ft
800 à 1500m
200 à 500 ft
< 800m
< 200 ft
Symboles :   Orages  Brouillard  Fortes neiges  Fortes précipitations  Vent > 20 kt
SIGMETs :   Divers  Orages  Givrage  Turbulence  Onde Orograph.  Cendres Volcan.






- Altitude de l'aérodrome : 1306 ft
- Code IATA : ACH


LSZR - Alten Rhein

DERNIER METAR :
  • 061650Z AUTO 10007KT 9999 FEW030 SCT035CB BKN041 16/14 Q1006

METARs EXPIRÉS :
  • 061620Z AUTO 09006KT 9999 FEW029 SCT033TCU 16/15 Q1006
  • 061550Z AUTO 06005KT 9999 FEW030 BKN075 BKN100 SCT///CB 16/14 Q1006
  • 061520Z VRB01KT 9999 VCTS FEW023CB BKN040 18/15 Q1006 NOSIG RMK K
  • 061450Z 30010KT 9999 RA VCTS FEW030CB BKN050 16/14 Q1006 NOSIG RMK J
  • 061420Z 34008KT 9999 SCT032 BKN045 18/13 Q1006 NOSIG RMK H

TAF TAF LSZR
Valide du 06 à 15h jusqu'au 07 à 00h UTC


061425Z 0615/0624 27008KT 9999 SCT030 BKN045
PROB30
TEMPO 0615/0616 29015G25KT
PROB40
TEMPO 0615/0624 SHRA SCT040TCU
ATIS : +41 71 858 51 66



MET'MAP, la Météo Aéronautique d'un coup d'oeil ! - Copyright ORBIFLY Décembre 2007 - Disclaimer

ORBIFLY MET'MAP TEAM :

Programmation & Développement : Alexandra Zaïnal
Sur une idée originale de : Baudouin d'Aumeries
Assistance à la programmation : Marc-Olivier Méhu
Soutien technique & logistique : Manuel Goepfert

Contact : metmap@orbifly.com




SOURCES & CREDITS :

   NOAA